sensor_id;sensor_type;location;lat;lon;timestamp;P1;durP1;ratioP1;P2;durP2;ratioP2
27223;SDS011;14965;50.660;13.226;2023-07-29T00:02:21;5.03;;;2.50;;
27223;SDS011;14965;50.660;13.226;2023-07-29T00:04:47;3.63;;;2.75;;
27223;SDS011;14965;50.660;13.226;2023-07-29T00:07:14;3.28;;;2.30;;
27223;SDS011;14965;50.660;13.226;2023-07-29T00:09:40;3.05;;;2.70;;
27223;SDS011;14965;50.660;13.226;2023-07-29T00:12:07;4.60;;;2.90;;
27223;SDS011;14965;50.660;13.226;2023-07-29T00:14:33;2.53;;;2.33;;
27223;SDS011;14965;50.660;13.226;2023-07-29T00:16:58;3.13;;;2.40;;
27223;SDS011;14965;50.660;13.226;2023-07-29T00:19:24;3.17;;;2.25;;
27223;SDS011;14965;50.660;13.226;2023-07-29T00:21:50;3.08;;;2.30;;
27223;SDS011;14965;50.660;13.226;2023-07-29T00:24:17;2.50;;;2.30;;
27223;SDS011;14965;50.660;13.226;2023-07-29T00:26:43;3.67;;;2.08;;
27223;SDS011;14965;50.660;13.226;2023-07-29T00:29:09;5.28;;;2.40;;
27223;SDS011;14965;50.660;13.226;2023-07-29T00:31:35;4.57;;;2.33;;
27223;SDS011;14965;50.660;13.226;2023-07-29T00:34:01;5.22;;;2.20;;
27223;SDS011;14965;50.660;13.226;2023-07-29T00:36:27;2.00;;;1.88;;
27223;SDS011;14965;50.660;13.226;2023-07-29T00:38:53;6.50;;;2.17;;
27223;SDS011;14965;50.660;13.226;2023-07-29T00:41:20;4.50;;;2.05;;
27223;SDS011;14965;50.660;13.226;2023-07-29T00:43:47;3.30;;;1.60;;
27223;SDS011;14965;50.660;13.226;2023-07-29T00:46:13;2.08;;;1.88;;
27223;SDS011;14965;50.660;13.226;2023-07-29T00:48:41;2.20;;;2.00;;
27223;SDS011;14965;50.660;13.226;2023-07-29T00:51:07;2.67;;;1.80;;
27223;SDS011;14965;50.660;13.226;2023-07-29T00:53:33;2.80;;;1.92;;
27223;SDS011;14965;50.660;13.226;2023-07-29T00:55:59;2.28;;;1.77;;
27223;SDS011;14965;50.660;13.226;2023-07-29T00:58:27;2.00;;;1.80;;
27223;SDS011;14965;50.660;13.226;2023-07-29T01:00:53;2.08;;;1.80;;
27223;SDS011;14965;50.660;13.226;2023-07-29T01:03:20;2.00;;;1.80;;
27223;SDS011;14965;50.660;13.226;2023-07-29T01:05:49;1.88;;;1.73;;
27223;SDS011;14965;50.660;13.226;2023-07-29T01:08:31;1.90;;;1.70;;
27223;SDS011;14965;50.660;13.226;2023-07-29T01:11:09;2.22;;;1.50;;
27223;SDS011;14965;50.660;13.226;2023-07-29T01:14:01;3.03;;;1.80;;
27223;SDS011;14965;50.660;13.226;2023-07-29T01:19:06;1.73;;;1.60;;
27223;SDS011;14965;50.660;13.226;2023-07-29T01:21:51;3.03;;;1.60;;
27223;SDS011;14965;50.660;13.226;2023-07-29T01:24:19;1.85;;;1.50;;
27223;SDS011;14965;50.660;13.226;2023-07-29T01:26:44;3.45;;;1.60;;
27223;SDS011;14965;50.660;13.226;2023-07-29T01:29:10;4.07;;;1.42;;
27223;SDS011;14965;50.660;13.226;2023-07-29T01:31:37;2.40;;;1.77;;
27223;SDS011;14965;50.660;13.226;2023-07-29T01:34:13;2.17;;;1.60;;
27223;SDS011;14965;50.660;13.226;2023-07-29T01:36:46;2.92;;;1.77;;
27223;SDS011;14965;50.660;13.226;2023-07-29T01:39:19;2.33;;;2.00;;
27223;SDS011;14965;50.660;13.226;2023-07-29T01:41:48;1.60;;;1.40;;
27223;SDS011;14965;50.660;13.226;2023-07-29T01:44:16;3.00;;;1.58;;
27223;SDS011;14965;50.660;13.226;2023-07-29T01:46:43;1.92;;;1.42;;
27223;SDS011;14965;50.660;13.226;2023-07-29T01:49:09;1.50;;;1.33;;
27223;SDS011;14965;50.660;13.226;2023-07-29T01:51:35;1.73;;;1.58;;
27223;SDS011;14965;50.660;13.226;2023-07-29T01:54:01;2.38;;;1.55;;
27223;SDS011;14965;50.660;13.226;2023-07-29T01:56:28;1.95;;;1.45;;
27223;SDS011;14965;50.660;13.226;2023-07-29T01:58:54;2.80;;;1.63;;
27223;SDS011;14965;50.660;13.226;2023-07-29T02:01:20;2.08;;;1.42;;
27223;SDS011;14965;50.660;13.226;2023-07-29T02:03:46;1.38;;;1.20;;
27223;SDS011;14965;50.660;13.226;2023-07-29T02:06:12;2.33;;;1.50;;
27223;SDS011;14965;50.660;13.226;2023-07-29T02:08:38;1.98;;;1.75;;
27223;SDS011;14965;50.660;13.226;2023-07-29T02:11:04;2.67;;;1.58;;
27223;SDS011;14965;50.660;13.226;2023-07-29T02:13:31;3.90;;;1.98;;
27223;SDS011;14965;50.660;13.226;2023-07-29T02:15:57;2.80;;;1.48;;
27223;SDS011;14965;50.660;13.226;2023-07-29T02:18:23;1.95;;;1.30;;
27223;SDS011;14965;50.660;13.226;2023-07-29T02:20:49;2.85;;;1.30;;
27223;SDS011;14965;50.660;13.226;2023-07-29T02:23:15;1.50;;;1.40;;
27223;SDS011;14965;50.660;13.226;2023-07-29T02:25:41;2.45;;;1.50;;
27223;SDS011;14965;50.660;13.226;2023-07-29T02:28:07;1.80;;;1.40;;
27223;SDS011;14965;50.660;13.226;2023-07-29T02:30:34;1.63;;;1.20;;
27223;SDS011;14965;50.660;13.226;2023-07-29T02:33:00;1.45;;;1.20;;
27223;SDS011;14965;50.660;13.226;2023-07-29T02:35:25;1.63;;;1.35;;
27223;SDS011;14965;50.660;13.226;2023-07-29T02:37:51;1.23;;;1.10;;
27223;SDS011;14965;50.660;13.226;2023-07-29T02:40:17;1.75;;;1.17;;
27223;SDS011;14965;50.660;13.226;2023-07-29T02:42:43;2.33;;;1.33;;
27223;SDS011;14965;50.660;13.226;2023-07-29T02:45:09;2.35;;;1.08;;
27223;SDS011;14965;50.660;13.226;2023-07-29T02:47:37;2.22;;;1.40;;
27223;SDS011;14965;50.660;13.226;2023-07-29T02:50:03;2.03;;;1.23;;
27223;SDS011;14965;50.660;13.226;2023-07-29T02:52:30;2.05;;;1.20;;
27223;SDS011;14965;50.660;13.226;2023-07-29T02:54:56;1.92;;;1.40;;
27223;SDS011;14965;50.660;13.226;2023-07-29T02:57:22;1.85;;;1.25;;
27223;SDS011;14965;50.660;13.226;2023-07-29T02:59:48;2.72;;;1.50;;
27223;SDS011;14965;50.660;13.226;2023-07-29T03:02:14;1.38;;;1.10;;
27223;SDS011;14965;50.660;13.226;2023-07-29T03:04:41;1.35;;;1.20;;
27223;SDS011;14965;50.660;13.226;2023-07-29T03:07:07;1.58;;;1.25;;
27223;SDS011;14965;50.660;13.226;2023-07-29T03:09:33;1.23;;;1.10;;
27223;SDS011;14965;50.660;13.226;2023-07-29T03:11:59;1.42;;;1.10;;
27223;SDS011;14965;50.660;13.226;2023-07-29T03:14:25;2.45;;;1.30;;
27223;SDS011;14965;50.660;13.226;2023-07-29T03:16:50;1.33;;;1.20;;
27223;SDS011;14965;50.660;13.226;2023-07-29T03:19:16;2.90;;;1.55;;
27223;SDS011;14965;50.660;13.226;2023-07-29T03:21:43;1.85;;;1.10;;
27223;SDS011;14965;50.660;13.226;2023-07-29T03:24:09;1.40;;;1.30;;
27223;SDS011;14965;50.660;13.226;2023-07-29T03:26:35;1.75;;;1.13;;
27223;SDS011;14965;50.660;13.226;2023-07-29T03:29:01;1.77;;;1.15;;
27223;SDS011;14965;50.660;13.226;2023-07-29T03:31:27;1.50;;;1.13;;
27223;SDS011;14965;50.660;13.226;2023-07-29T03:33:53;1.20;;;1.00;;
27223;SDS011;14965;50.660;13.226;2023-07-29T03:36:19;1.42;;;1.08;;
27223;SDS011;14965;50.660;13.226;2023-07-29T03:38:48;1.77;;;1.20;;
27223;SDS011;14965;50.660;13.226;2023-07-29T03:41:14;1.70;;;1.10;;
27223;SDS011;14965;50.660;13.226;2023-07-29T03:43:39;1.35;;;1.05;;
27223;SDS011;14965;50.660;13.226;2023-07-29T03:46:05;1.33;;;1.15;;
27223;SDS011;14965;50.660;13.226;2023-07-29T03:48:31;2.35;;;0.85;;
27223;SDS011;14965;50.660;13.226;2023-07-29T03:50:57;1.30;;;0.90;;
27223;SDS011;14965;50.660;13.226;2023-07-29T03:53:23;1.98;;;0.90;;
27223;SDS011;14965;50.660;13.226;2023-07-29T03:55:50;0.80;;;0.80;;
27223;SDS011;14965;50.660;13.226;2023-07-29T03:58:16;2.40;;;1.10;;
27223;SDS011;14965;50.660;13.226;2023-07-29T04:00:42;2.20;;;0.95;;
27223;SDS011;14965;50.660;13.226;2023-07-29T04:03:08;1.20;;;1.10;;
27223;SDS011;14965;50.660;13.226;2023-07-29T04:05:34;1.98;;;1.50;;
27223;SDS011;14965;50.660;13.226;2023-07-29T04:08:00;3.47;;;1.05;;
27223;SDS011;14965;50.660;13.226;2023-07-29T04:10:26;0.93;;;0.85;;
27223;SDS011;14965;50.660;13.226;2023-07-29T04:12:53;1.73;;;1.00;;
27223;SDS011;14965;50.660;13.226;2023-07-29T04:15:19;3.67;;;1.20;;
27223;SDS011;14965;50.660;13.226;2023-07-29T04:17:45;1.20;;;1.10;;
27223;SDS011;14965;50.660;13.226;2023-07-29T04:20:11;1.00;;;1.00;;
27223;SDS011;14965;50.660;13.226;2023-07-29T04:22:37;2.35;;;1.33;;
27223;SDS011;14965;50.660;13.226;2023-07-29T04:25:03;1.80;;;1.10;;
27223;SDS011;14965;50.660;13.226;2023-07-29T04:27:30;1.33;;;1.10;;
27223;SDS011;14965;50.660;13.226;2023-07-29T04:29:57;1.45;;;1.00;;
27223;SDS011;14965;50.660;13.226;2023-07-29T04:32:23;1.30;;;1.20;;
27223;SDS011;14965;50.660;13.226;2023-07-29T04:34:49;2.55;;;1.40;;
27223;SDS011;14965;50.660;13.226;2023-07-29T04:37:15;1.30;;;1.20;;
27223;SDS011;14965;50.660;13.226;2023-07-29T04:39:41;1.13;;;1.02;;
27223;SDS011;14965;50.660;13.226;2023-07-29T04:42:08;1.17;;;1.10;;
27223;SDS011;14965;50.660;13.226;2023-07-29T04:44:34;1.30;;;1.20;;
27223;SDS011;14965;50.660;13.226;2023-07-29T04:47:01;1.48;;;1.05;;
27223;SDS011;14965;50.660;13.226;2023-07-29T04:49:27;1.95;;;1.20;;
27223;SDS011;14965;50.660;13.226;2023-07-29T04:51:53;1.40;;;1.20;;
27223;SDS011;14965;50.660;13.226;2023-07-29T04:54:19;1.48;;;1.05;;
27223;SDS011;14965;50.660;13.226;2023-07-29T04:56:45;2.45;;;1.20;;
27223;SDS011;14965;50.660;13.226;2023-07-29T04:59:11;4.43;;;1.63;;
27223;SDS011;14965;50.660;13.226;2023-07-29T05:01:37;1.50;;;1.40;;
27223;SDS011;14965;50.660;13.226;2023-07-29T05:04:04;2.75;;;1.52;;
27223;SDS011;14965;50.660;13.226;2023-07-29T05:06:30;1.63;;;1.50;;
27223;SDS011;14965;50.660;13.226;2023-07-29T05:08:56;2.22;;;1.50;;
27223;SDS011;14965;50.660;13.226;2023-07-29T05:11:22;1.40;;;1.30;;
27223;SDS011;14965;50.660;13.226;2023-07-29T05:13:48;1.92;;;1.70;;
27223;SDS011;14965;50.660;13.226;2023-07-29T05:16:14;1.85;;;1.30;;
27223;SDS011;14965;50.660;13.226;2023-07-29T05:18:40;3.92;;;1.60;;
27223;SDS011;14965;50.660;13.226;2023-07-29T05:21:07;1.70;;;1.30;;
27223;SDS011;14965;50.660;13.226;2023-07-29T05:23:33;1.50;;;1.40;;
27223;SDS011;14965;50.660;13.226;2023-07-29T05:25:59;2.08;;;1.60;;
27223;SDS011;14965;50.660;13.226;2023-07-29T05:28:25;1.98;;;1.50;;
27223;SDS011;14965;50.660;13.226;2023-07-29T05:30:51;3.80;;;1.30;;
27223;SDS011;14965;50.660;13.226;2023-07-29T05:33:17;3.05;;;1.40;;
27223;SDS011;14965;50.660;13.226;2023-07-29T05:35:43;2.35;;;1.30;;
27223;SDS011;14965;50.660;13.226;2023-07-29T05:38:10;1.60;;;1.40;;
27223;SDS011;14965;50.660;13.226;2023-07-29T05:40:36;1.60;;;1.50;;
27223;SDS011;14965;50.660;13.226;2023-07-29T05:43:02;2.10;;;1.50;;
27223;SDS011;14965;50.660;13.226;2023-07-29T05:45:28;5.00;;;1.40;;
27223;SDS011;14965;50.660;13.226;2023-07-29T05:47:54;3.00;;;1.25;;
27223;SDS011;14965;50.660;13.226;2023-07-29T05:50:20;1.30;;;1.20;;
27223;SDS011;14965;50.660;13.226;2023-07-29T05:52:46;3.33;;;1.52;;
27223;SDS011;14965;50.660;13.226;2023-07-29T05:55:13;1.75;;;1.40;;
27223;SDS011;14965;50.660;13.226;2023-07-29T05:57:39;1.75;;;1.48;;
27223;SDS011;14965;50.660;13.226;2023-07-29T06:00:05;1.30;;;1.20;;
27223;SDS011;14965;50.660;13.226;2023-07-29T06:02:32;1.90;;;1.48;;
27223;SDS011;14965;50.660;13.226;2023-07-29T06:04:58;2.05;;;1.42;;
27223;SDS011;14965;50.660;13.226;2023-07-29T06:07:24;1.63;;;1.52;;
27223;SDS011;14965;50.660;13.226;2023-07-29T06:09:49;2.65;;;1.52;;
27223;SDS011;14965;50.660;13.226;2023-07-29T06:12:17;1.40;;;1.30;;
27223;SDS011;14965;50.660;13.226;2023-07-29T06:14:43;1.65;;;1.48;;
27223;SDS011;14965;50.660;13.226;2023-07-29T06:17:08;1.83;;;1.38;;
27223;SDS011;14965;50.660;13.226;2023-07-29T06:19:34;1.70;;;1.55;;
27223;SDS011;14965;50.660;13.226;2023-07-29T06:22:00;1.98;;;1.60;;
27223;SDS011;14965;50.660;13.226;2023-07-29T06:24:26;1.95;;;1.50;;
27223;SDS011;14965;50.660;13.226;2023-07-29T06:26:52;1.63;;;1.50;;
27223;SDS011;14965;50.660;13.226;2023-07-29T06:29:19;1.50;;;1.40;;
27223;SDS011;14965;50.660;13.226;2023-07-29T06:31:45;1.77;;;1.60;;
27223;SDS011;14965;50.660;13.226;2023-07-29T06:34:11;3.53;;;1.40;;
27223;SDS011;14965;50.660;13.226;2023-07-29T06:36:37;1.45;;;1.30;;
27223;SDS011;14965;50.660;13.226;2023-07-29T06:39:03;1.77;;;1.38;;
27223;SDS011;14965;50.660;13.226;2023-07-29T06:41:28;1.83;;;1.30;;
27223;SDS011;14965;50.660;13.226;2023-07-29T06:43:54;1.70;;;1.45;;
27223;SDS011;14965;50.660;13.226;2023-07-29T06:46:22;1.70;;;1.40;;
27223;SDS011;14965;50.660;13.226;2023-07-29T06:48:48;1.15;;;1.10;;
27223;SDS011;14965;50.660;13.226;2023-07-29T06:51:13;2.00;;;1.20;;
27223;SDS011;14965;50.660;13.226;2023-07-29T06:53:39;3.50;;;1.30;;
27223;SDS011;14965;50.660;13.226;2023-07-29T06:56:05;2.92;;;1.10;;
27223;SDS011;14965;50.660;13.226;2023-07-29T06:58:31;1.30;;;1.20;;
27223;SDS011;14965;50.660;13.226;2023-07-29T07:00:57;1.35;;;1.00;;
27223;SDS011;14965;50.660;13.226;2023-07-29T07:03:24;1.25;;;1.15;;
27223;SDS011;14965;50.660;13.226;2023-07-29T07:05:50;1.42;;;1.33;;
27223;SDS011;14965;50.660;13.226;2023-07-29T07:08:16;1.30;;;1.20;;
27223;SDS011;14965;50.660;13.226;2023-07-29T07:10:42;1.50;;;1.20;;
27223;SDS011;14965;50.660;13.226;2023-07-29T07:13:08;2.50;;;1.15;;
27223;SDS011;14965;50.660;13.226;2023-07-29T07:15:34;1.45;;;1.20;;
27223;SDS011;14965;50.660;13.226;2023-07-29T07:18:00;1.30;;;1.00;;
27223;SDS011;14965;50.660;13.226;2023-07-29T07:20:27;1.40;;;1.25;;
27223;SDS011;14965;50.660;13.226;2023-07-29T07:22:54;1.50;;;1.20;;
27223;SDS011;14965;50.660;13.226;2023-07-29T07:25:19;1.88;;;1.50;;
27223;SDS011;14965;50.660;13.226;2023-07-29T07:27:45;1.58;;;1.00;;
27223;SDS011;14965;50.660;13.226;2023-07-29T07:30:11;1.58;;;1.20;;
27223;SDS011;14965;50.660;13.226;2023-07-29T07:32:37;1.73;;;1.05;;
27223;SDS011;14965;50.660;13.226;2023-07-29T07:35:03;1.27;;;1.10;;
27223;SDS011;14965;50.660;13.226;2023-07-29T07:37:31;1.30;;;1.20;;
27223;SDS011;14965;50.660;13.226;2023-07-29T07:39:57;1.40;;;1.05;;
27223;SDS011;14965;50.660;13.226;2023-07-29T07:42:23;1.38;;;1.27;;
27223;SDS011;14965;50.660;13.226;2023-07-29T07:44:49;1.20;;;1.10;;
27223;SDS011;14965;50.660;13.226;2023-07-29T07:47:15;2.15;;;1.23;;
27223;SDS011;14965;50.660;13.226;2023-07-29T07:49:40;2.08;;;1.33;;
27223;SDS011;14965;50.660;13.226;2023-07-29T07:52:06;1.52;;;1.13;;
27223;SDS011;14965;50.660;13.226;2023-07-29T07:54:34;2.15;;;1.33;;
27223;SDS011;14965;50.660;13.226;2023-07-29T07:57:00;1.35;;;1.25;;
27223;SDS011;14965;50.660;13.226;2023-07-29T07:59:25;1.83;;;1.20;;
27223;SDS011;14965;50.660;13.226;2023-07-29T08:01:51;1.10;;;1.10;;
27223;SDS011;14965;50.660;13.226;2023-07-29T08:04:17;4.05;;;1.95;;
27223;SDS011;14965;50.660;13.226;2023-07-29T08:06:43;2.10;;;1.45;;
27223;SDS011;14965;50.660;13.226;2023-07-29T08:09:09;4.90;;;2.45;;
27223;SDS011;14965;50.660;13.226;2023-07-29T08:11:36;1.30;;;1.20;;
27223;SDS011;14965;50.660;13.226;2023-07-29T08:14:02;3.25;;;1.10;;
27223;SDS011;14965;50.660;13.226;2023-07-29T08:16:28;2.35;;;1.40;;
27223;SDS011;14965;50.660;13.226;2023-07-29T08:18:54;1.40;;;1.20;;
27223;SDS011;14965;50.660;13.226;2023-07-29T08:21:20;1.38;;;1.25;;
27223;SDS011;14965;50.660;13.226;2023-07-29T08:23:46;2.30;;;1.40;;
27223;SDS011;14965;50.660;13.226;2023-07-29T08:26:11;1.30;;;1.20;;
27223;SDS011;14965;50.660;13.226;2023-07-29T08:28:39;1.35;;;1.25;;
27223;SDS011;14965;50.660;13.226;2023-07-29T08:31:05;1.88;;;1.25;;
27223;SDS011;14965;50.660;13.226;2023-07-29T08:33:32;2.05;;;1.50;;
27223;SDS011;14965;50.660;13.226;2023-07-29T08:35:58;1.45;;;1.35;;
27223;SDS011;14965;50.660;13.226;2023-07-29T08:38:24;1.60;;;1.50;;
27223;SDS011;14965;50.660;13.226;2023-07-29T08:40:52;2.13;;;1.45;;
27223;SDS011;14965;50.660;13.226;2023-07-29T08:43:25;2.05;;;1.38;;
27223;SDS011;14965;50.660;13.226;2023-07-29T08:45:56;1.63;;;1.52;;
27223;SDS011;14965;50.660;13.226;2023-07-29T08:48:23;1.98;;;1.40;;
27223;SDS011;14965;50.660;13.226;2023-07-29T08:50:57;2.08;;;1.27;;
27223;SDS011;14965;50.660;13.226;2023-07-29T08:53:26;1.58;;;1.35;;
27223;SDS011;14965;50.660;13.226;2023-07-29T08:55:53;2.13;;;1.30;;
27223;SDS011;14965;50.660;13.226;2023-07-29T08:58:19;1.83;;;1.45;;
27223;SDS011;14965;50.660;13.226;2023-07-29T09:00:45;2.00;;;1.40;;
27223;SDS011;14965;50.660;13.226;2023-07-29T09:03:14;1.27;;;1.17;;
27223;SDS011;14965;50.660;13.226;2023-07-29T09:05:40;1.30;;;1.20;;
27223;SDS011;14965;50.660;13.226;2023-07-29T09:08:06;1.95;;;1.15;;
27223;SDS011;14965;50.660;13.226;2023-07-29T09:10:34;1.30;;;1.20;;
27223;SDS011;14965;50.660;13.226;2023-07-29T09:13:01;2.33;;;1.40;;
27223;SDS011;14965;50.660;13.226;2023-07-29T09:15:27;1.30;;;1.20;;
27223;SDS011;14965;50.660;13.226;2023-07-29T09:17:55;1.23;;;1.13;;
27223;SDS011;14965;50.660;13.226;2023-07-29T09:20:25;2.25;;;1.13;;
27223;SDS011;14965;50.660;13.226;2023-07-29T09:22:52;1.27;;;1.17;;
27223;SDS011;14965;50.660;13.226;2023-07-29T09:25:22;2.15;;;1.38;;
27223;SDS011;14965;50.660;13.226;2023-07-29T09:27:49;1.30;;;1.20;;
27223;SDS011;14965;50.660;13.226;2023-07-29T09:30:15;2.40;;;1.10;;
27223;SDS011;14965;50.660;13.226;2023-07-29T09:32:42;1.73;;;1.20;;
27223;SDS011;14965;50.660;13.226;2023-07-29T09:35:09;1.35;;;1.25;;
27223;SDS011;14965;50.660;13.226;2023-07-29T09:37:37;0.95;;;0.90;;
27223;SDS011;14965;50.660;13.226;2023-07-29T09:40:05;2.13;;;1.10;;
27223;SDS011;14965;50.660;13.226;2023-07-29T09:42:38;2.33;;;1.20;;
27223;SDS011;14965;50.660;13.226;2023-07-29T09:45:04;1.08;;;0.98;;
27223;SDS011;14965;50.660;13.226;2023-07-29T09:47:31;2.95;;;1.15;;
27223;SDS011;14965;50.660;13.226;2023-07-29T09:49:57;1.10;;;1.00;;
27223;SDS011;14965;50.660;13.226;2023-07-29T09:52:24;1.85;;;0.98;;
27223;SDS011;14965;50.660;13.226;2023-07-29T09:54:52;1.75;;;1.10;;
27223;SDS011;14965;50.660;13.226;2023-07-29T09:59:52;1.88;;;1.23;;
27223;SDS011;14965;50.660;13.226;2023-07-29T10:02:19;1.35;;;1.25;;
27223;SDS011;14965;50.660;13.226;2023-07-29T10:04:46;3.28;;;1.08;;
27223;SDS011;14965;50.660;13.226;2023-07-29T10:07:13;1.30;;;1.02;;
27223;SDS011;14965;50.660;13.226;2023-07-29T10:09:41;1.27;;;1.17;;
27223;SDS011;14965;50.660;13.226;2023-07-29T10:12:11;2.58;;;1.13;;
27223;SDS011;14965;50.660;13.226;2023-07-29T10:14:39;2.95;;;0.98;;
27223;SDS011;14965;50.660;13.226;2023-07-29T10:17:06;1.27;;;0.77;;
27223;SDS011;14965;50.660;13.226;2023-07-29T10:19:33;3.22;;;0.90;;
27223;SDS011;14965;50.660;13.226;2023-07-29T10:22:02;0.70;;;0.70;;
27223;SDS011;14965;50.660;13.226;2023-07-29T10:24:30;2.88;;;0.80;;
27223;SDS011;14965;50.660;13.226;2023-07-29T10:26:58;3.07;;;1.10;;
27223;SDS011;14965;50.660;13.226;2023-07-29T10:29:30;1.33;;;0.88;;
27223;SDS011;14965;50.660;13.226;2023-07-29T10:32:02;2.15;;;0.80;;
27223;SDS011;14965;50.660;13.226;2023-07-29T10:34:31;3.15;;;1.30;;
27223;SDS011;14965;50.660;13.226;2023-07-29T10:36:58;0.80;;;0.80;;
27223;SDS011;14965;50.660;13.226;2023-07-29T10:39:25;1.10;;;1.00;;
27223;SDS011;14965;50.660;13.226;2023-07-29T10:41:54;2.28;;;0.82;;
27223;SDS011;14965;50.660;13.226;2023-07-29T10:47:17;1.42;;;0.75;;
27223;SDS011;14965;50.660;13.226;2023-07-29T10:49:46;2.28;;;0.80;;
27223;SDS011;14965;50.660;13.226;2023-07-29T10:52:14;3.25;;;0.80;;
27223;SDS011;14965;50.660;13.226;2023-07-29T10:54:42;0.80;;;0.77;;
27223;SDS011;14965;50.660;13.226;2023-07-29T10:57:12;1.02;;;0.90;;
27223;SDS011;14965;50.660;13.226;2023-07-29T10:59:38;1.13;;;0.63;;
27223;SDS011;14965;50.660;13.226;2023-07-29T11:02:11;1.48;;;0.90;;
27223;SDS011;14965;50.660;13.226;2023-07-29T11:07:19;1.00;;;0.60;;
27223;SDS011;14965;50.660;13.226;2023-07-29T11:10:03;1.35;;;0.60;;
27223;SDS011;14965;50.660;13.226;2023-07-29T11:12:36;1.27;;;0.70;;
27223;SDS011;14965;50.660;13.226;2023-07-29T11:15:12;1.27;;;0.85;;
27223;SDS011;14965;50.660;13.226;2023-07-29T11:17:42;1.13;;;0.68;;
27223;SDS011;14965;50.660;13.226;2023-07-29T11:20:10;1.20;;;0.60;;
27223;SDS011;14965;50.660;13.226;2023-07-29T11:22:38;0.63;;;0.63;;
27223;SDS011;14965;50.660;13.226;2023-07-29T11:25:05;0.75;;;0.70;;
27223;SDS011;14965;50.660;13.226;2023-07-29T11:27:34;1.27;;;0.52;;
27223;SDS011;14965;50.660;13.226;2023-07-29T11:30:00;0.88;;;0.60;;
27223;SDS011;14965;50.660;13.226;2023-07-29T11:32:30;1.30;;;0.70;;
27223;SDS011;14965;50.660;13.226;2023-07-29T11:34:59;2.15;;;0.70;;
27223;SDS011;14965;50.660;13.226;2023-07-29T11:37:28;0.70;;;0.70;;
27223;SDS011;14965;50.660;13.226;2023-07-29T11:39:53;0.50;;;0.50;;
27223;SDS011;14965;50.660;13.226;2023-07-29T11:42:20;0.75;;;0.70;;
27223;SDS011;14965;50.660;13.226;2023-07-29T11:44:46;0.95;;;0.63;;
27223;SDS011;14965;50.660;13.226;2023-07-29T11:47:12;0.85;;;0.50;;
27223;SDS011;14965;50.660;13.226;2023-07-29T11:49:39;0.93;;;0.70;;
27223;SDS011;14965;50.660;13.226;2023-07-29T11:52:07;0.77;;;0.60;;
27223;SDS011;14965;50.660;13.226;2023-07-29T11:54:35;2.25;;;0.60;;
27223;SDS011;14965;50.660;13.226;2023-07-29T11:57:03;0.82;;;0.47;;
27223;SDS011;14965;50.660;13.226;2023-07-29T12:01:58;1.38;;;0.63;;
27223;SDS011;14965;50.660;13.226;2023-07-29T12:04:25;0.60;;;0.60;;
27223;SDS011;14965;50.660;13.226;2023-07-29T12:06:52;0.82;;;0.77;;
27223;SDS011;14965;50.660;13.226;2023-07-29T12:09:19;2.45;;;0.82;;
27223;SDS011;14965;50.660;13.226;2023-07-29T12:11:46;2.15;;;0.93;;
27223;SDS011;14965;50.660;13.226;2023-07-29T12:14:12;1.00;;;0.90;;
27223;SDS011;14965;50.660;13.226;2023-07-29T12:16:40;4.18;;;1.10;;
27223;SDS011;14965;50.660;13.226;2023-07-29T12:19:07;2.30;;;1.00;;
27223;SDS011;14965;50.660;13.226;2023-07-29T12:24:08;2.22;;;1.23;;
27223;SDS011;14965;50.660;13.226;2023-07-29T12:26:36;2.15;;;0.98;;
27223;SDS011;14965;50.660;13.226;2023-07-29T12:29:10;2.75;;;1.38;;
27223;SDS011;14965;50.660;13.226;2023-07-29T12:34:07;2.95;;;1.27;;
27223;SDS011;14965;50.660;13.226;2023-07-29T12:36:45;1.75;;;1.50;;
27223;SDS011;14965;50.660;13.226;2023-07-29T12:39:16;2.83;;;1.20;;
27223;SDS011;14965;50.660;13.226;2023-07-29T12:41:45;2.95;;;1.25;;
27223;SDS011;14965;50.660;13.226;2023-07-29T12:44:11;1.20;;;1.10;;
27223;SDS011;14965;50.660;13.226;2023-07-29T12:46:37;1.38;;;1.27;;
27223;SDS011;14965;50.660;13.226;2023-07-29T12:49:03;1.50;;;1.40;;
27223;SDS011;14965;50.660;13.226;2023-07-29T12:51:29;1.60;;;1.33;;
27223;SDS011;14965;50.660;13.226;2023-07-29T12:53:56;2.17;;;1.50;;
27223;SDS011;14965;50.660;13.226;2023-07-29T12:56:22;1.30;;;1.20;;
27223;SDS011;14965;50.660;13.226;2023-07-29T12:58:49;2.38;;;1.40;;
27223;SDS011;14965;50.660;13.226;2023-07-29T13:01:15;1.27;;;1.13;;
27223;SDS011;14965;50.660;13.226;2023-07-29T13:03:41;2.70;;;1.40;;
27223;SDS011;14965;50.660;13.226;2023-07-29T13:06:07;2.25;;;1.42;;
27223;SDS011;14965;50.660;13.226;2023-07-29T13:08:33;1.70;;;1.25;;
27223;SDS011;14965;50.660;13.226;2023-07-29T13:10:59;2.03;;;1.10;;
27223;SDS011;14965;50.660;13.226;2023-07-29T13:13:25;2.38;;;1.13;;
27223;SDS011;14965;50.660;13.226;2023-07-29T13:15:53;1.30;;;1.20;;
27223;SDS011;14965;50.660;13.226;2023-07-29T13:18:19;1.50;;;1.15;;
27223;SDS011;14965;50.660;13.226;2023-07-29T13:20:46;1.52;;;1.27;;
27223;SDS011;14965;50.660;13.226;2023-07-29T13:23:14;2.50;;;1.27;;
27223;SDS011;14965;50.660;13.226;2023-07-29T13:25:41;1.50;;;1.05;;
27223;SDS011;14965;50.660;13.226;2023-07-29T13:28:09;1.38;;;1.20;;
27223;SDS011;14965;50.660;13.226;2023-07-29T13:30:36;2.63;;;1.20;;
27223;SDS011;14965;50.660;13.226;2023-07-29T13:33:03;1.63;;;1.20;;
27223;SDS011;14965;50.660;13.226;2023-07-29T13:35:30;3.28;;;1.10;;
27223;SDS011;14965;50.660;13.226;2023-07-29T13:37:56;1.35;;;1.20;;
27223;SDS011;14965;50.660;13.226;2023-07-29T13:40:22;1.98;;;1.48;;
27223;SDS011;14965;50.660;13.226;2023-07-29T13:42:48;2.13;;;1.40;;
27223;SDS011;14965;50.660;13.226;2023-07-29T13:45:14;2.05;;;1.30;;
27223;SDS011;14965;50.660;13.226;2023-07-29T13:47:40;1.95;;;1.40;;
27223;SDS011;14965;50.660;13.226;2023-07-29T13:50:08;2.55;;;1.40;;
27223;SDS011;14965;50.660;13.226;2023-07-29T13:52:35;4.22;;;1.40;;
27223;SDS011;14965;50.660;13.226;2023-07-29T13:55:02;2.13;;;1.20;;
27223;SDS011;14965;50.660;13.226;2023-07-29T13:57:29;1.77;;;1.30;;
27223;SDS011;14965;50.660;13.226;2023-07-29T13:59:55;1.48;;;1.27;;
27223;SDS011;14965;50.660;13.226;2023-07-29T14:02:21;1.73;;;1.52;;
27223;SDS011;14965;50.660;13.226;2023-07-29T14:04:47;2.50;;;1.33;;
27223;SDS011;14965;50.660;13.226;2023-07-29T14:07:14;1.90;;;1.33;;
27223;SDS011;14965;50.660;13.226;2023-07-29T14:09:40;3.65;;;1.27;;
27223;SDS011;14965;50.660;13.226;2023-07-29T14:12:08;1.52;;;1.30;;
27223;SDS011;14965;50.660;13.226;2023-07-29T14:14:37;3.17;;;1.15;;
27223;SDS011;14965;50.660;13.226;2023-07-29T14:17:03;1.42;;;1.20;;
27223;SDS011;14965;50.660;13.226;2023-07-29T14:19:29;3.47;;;1.10;;
27223;SDS011;14965;50.660;13.226;2023-07-29T14:21:56;2.72;;;1.40;;
27223;SDS011;14965;50.660;13.226;2023-07-29T14:24:23;1.77;;;1.20;;
27223;SDS011;14965;50.660;13.226;2023-07-29T14:26:49;1.40;;;1.30;;
27223;SDS011;14965;50.660;13.226;2023-07-29T14:29:15;1.30;;;1.05;;
27223;SDS011;14965;50.660;13.226;2023-07-29T14:31:41;1.65;;;1.05;;
27223;SDS011;14965;50.660;13.226;2023-07-29T14:34:07;1.90;;;1.10;;
27223;SDS011;14965;50.660;13.226;2023-07-29T14:36:33;1.30;;;1.10;;
27223;SDS011;14965;50.660;13.226;2023-07-29T14:38:59;1.88;;;1.17;;
27223;SDS011;14965;50.660;13.226;2023-07-29T14:41:26;1.40;;;1.20;;
27223;SDS011;14965;50.660;13.226;2023-07-29T14:43:52;1.30;;;1.10;;
27223;SDS011;14965;50.660;13.226;2023-07-29T14:46:18;2.03;;;0.90;;
27223;SDS011;14965;50.660;13.226;2023-07-29T14:48:44;1.08;;;1.02;;
27223;SDS011;14965;50.660;13.226;2023-07-29T14:51:10;4.60;;;1.20;;